sensor_id;sensor_type;location;lat;lon;timestamp;P1;durP1;ratioP1;P2;durP2;ratioP2
74791;SDS011;63319;46.046;17.802;2024-03-06T00:01:17;24.55;;;13.18;;
74791;SDS011;63319;46.046;17.802;2024-03-06T00:04:20;23.60;;;11.95;;
74791;SDS011;63319;46.046;17.802;2024-03-06T00:07:23;25.37;;;12.73;;
74791;SDS011;63319;46.046;17.802;2024-03-06T00:10:26;24.52;;;13.15;;
74791;SDS011;63319;46.046;17.802;2024-03-06T00:13:29;21.83;;;12.25;;
74791;SDS011;63319;46.046;17.802;2024-03-06T00:16:31;22.93;;;12.10;;
74791;SDS011;63319;46.046;17.802;2024-03-06T00:19:35;23.00;;;12.60;;
74791;SDS011;63319;46.046;17.802;2024-03-06T00:22:38;22.00;;;11.80;;
74791;SDS011;63319;46.046;17.802;2024-03-06T00:25:41;22.42;;;12.50;;
74791;SDS011;63319;46.046;17.802;2024-03-06T00:28:44;22.92;;;12.52;;
74791;SDS011;63319;46.046;17.802;2024-03-06T00:31:47;23.92;;;12.32;;
74791;SDS011;63319;46.046;17.802;2024-03-06T00:34:50;27.52;;;14.15;;
74791;SDS011;63319;46.046;17.802;2024-03-06T00:37:54;41.27;;;16.40;;
74791;SDS011;63319;46.046;17.802;2024-03-06T00:40:57;30.48;;;15.77;;
74791;SDS011;63319;46.046;17.802;2024-03-06T00:44:00;31.00;;;15.25;;
74791;SDS011;63319;46.046;17.802;2024-03-06T00:47:04;33.27;;;15.03;;
74791;SDS011;63319;46.046;17.802;2024-03-06T00:50:07;26.98;;;13.82;;
74791;SDS011;63319;46.046;17.802;2024-03-06T00:53:11;27.98;;;14.05;;
74791;SDS011;63319;46.046;17.802;2024-03-06T00:56:14;27.05;;;14.57;;
74791;SDS011;63319;46.046;17.802;2024-03-06T00:59:17;31.70;;;16.05;;
74791;SDS011;63319;46.046;17.802;2024-03-06T01:02:21;28.38;;;14.32;;
74791;SDS011;63319;46.046;17.802;2024-03-06T01:05:24;29.27;;;15.52;;
74791;SDS011;63319;46.046;17.802;2024-03-06T01:08:27;29.27;;;14.67;;
74791;SDS011;63319;46.046;17.802;2024-03-06T01:11:30;29.80;;;16.77;;
74791;SDS011;63319;46.046;17.802;2024-03-06T01:14:33;31.17;;;15.10;;
74791;SDS011;63319;46.046;17.802;2024-03-06T01:17:40;31.10;;;16.67;;
74791;SDS011;63319;46.046;17.802;2024-03-06T01:20:44;29.20;;;15.57;;
74791;SDS011;63319;46.046;17.802;2024-03-06T01:23:47;26.92;;;14.57;;
74791;SDS011;63319;46.046;17.802;2024-03-06T01:26:50;30.40;;;15.68;;
74791;SDS011;63319;46.046;17.802;2024-03-06T01:29:53;30.70;;;14.80;;
74791;SDS011;63319;46.046;17.802;2024-03-06T01:32:56;27.95;;;14.23;;
74791;SDS011;63319;46.046;17.802;2024-03-06T01:35:59;29.50;;;15.73;;
74791;SDS011;63319;46.046;17.802;2024-03-06T01:39:02;27.23;;;13.07;;
74791;SDS011;63319;46.046;17.802;2024-03-06T01:42:05;28.65;;;15.15;;
74791;SDS011;63319;46.046;17.802;2024-03-06T01:45:08;27.75;;;13.57;;
74791;SDS011;63319;46.046;17.802;2024-03-06T01:48:11;24.87;;;13.67;;
74791;SDS011;63319;46.046;17.802;2024-03-06T01:51:15;30.92;;;14.43;;
74791;SDS011;63319;46.046;17.802;2024-03-06T01:54:18;32.65;;;15.57;;
74791;SDS011;63319;46.046;17.802;2024-03-06T01:57:22;29.63;;;16.27;;
74791;SDS011;63319;46.046;17.802;2024-03-06T02:00:25;31.58;;;16.35;;
74791;SDS011;63319;46.046;17.802;2024-03-06T02:03:28;31.88;;;15.80;;
74791;SDS011;63319;46.046;17.802;2024-03-06T02:06:31;31.30;;;15.82;;
74791;SDS011;63319;46.046;17.802;2024-03-06T02:09:34;27.93;;;15.47;;
74791;SDS011;63319;46.046;17.802;2024-03-06T02:12:37;36.55;;;17.42;;
74791;SDS011;63319;46.046;17.802;2024-03-06T02:15:41;35.08;;;17.55;;
74791;SDS011;63319;46.046;17.802;2024-03-06T02:18:53;32.27;;;18.10;;
74791;SDS011;63319;46.046;17.802;2024-03-06T02:21:57;42.00;;;18.88;;
74791;SDS011;63319;46.046;17.802;2024-03-06T02:25:00;33.08;;;17.45;;
74791;SDS011;63319;46.046;17.802;2024-03-06T02:28:03;37.78;;;17.05;;
74791;SDS011;63319;46.046;17.802;2024-03-06T02:31:09;31.90;;;15.90;;
74791;SDS011;63319;46.046;17.802;2024-03-06T02:34:12;31.20;;;15.88;;
74791;SDS011;63319;46.046;17.802;2024-03-06T02:37:14;33.58;;;17.50;;
74791;SDS011;63319;46.046;17.802;2024-03-06T02:40:17;38.00;;;18.50;;
74791;SDS011;63319;46.046;17.802;2024-03-06T02:43:20;32.88;;;16.35;;
74791;SDS011;63319;46.046;17.802;2024-03-06T02:46:24;32.40;;;16.58;;
74791;SDS011;63319;46.046;17.802;2024-03-06T02:49:27;33.97;;;17.80;;
74791;SDS011;63319;46.046;17.802;2024-03-06T02:52:29;32.92;;;16.13;;
74791;SDS011;63319;46.046;17.802;2024-03-06T02:55:32;30.95;;;15.23;;
74791;SDS011;63319;46.046;17.802;2024-03-06T02:58:35;29.80;;;15.93;;
74791;SDS011;63319;46.046;17.802;2024-03-06T03:01:38;29.00;;;15.00;;
74791;SDS011;63319;46.046;17.802;2024-03-06T03:04:41;30.35;;;15.52;;
74791;SDS011;63319;46.046;17.802;2024-03-06T03:07:45;30.65;;;15.70;;
74791;SDS011;63319;46.046;17.802;2024-03-06T03:10:48;28.27;;;14.57;;
74791;SDS011;63319;46.046;17.802;2024-03-06T03:13:51;35.58;;;17.35;;
74791;SDS011;63319;46.046;17.802;2024-03-06T03:16:54;36.25;;;17.02;;
74791;SDS011;63319;46.046;17.802;2024-03-06T03:19:57;41.13;;;17.93;;
74791;SDS011;63319;46.046;17.802;2024-03-06T03:23:00;33.47;;;18.40;;
74791;SDS011;63319;46.046;17.802;2024-03-06T03:26:04;34.95;;;18.85;;
74791;SDS011;63319;46.046;17.802;2024-03-06T03:29:07;35.88;;;18.48;;
74791;SDS011;63319;46.046;17.802;2024-03-06T03:32:10;35.80;;;18.33;;
74791;SDS011;63319;46.046;17.802;2024-03-06T03:35:13;31.20;;;16.23;;
74791;SDS011;63319;46.046;17.802;2024-03-06T03:38:16;35.15;;;17.40;;
74791;SDS011;63319;46.046;17.802;2024-03-06T03:41:20;31.07;;;17.53;;
74791;SDS011;63319;46.046;17.802;2024-03-06T03:44:23;30.38;;;16.90;;
74791;SDS011;63319;46.046;17.802;2024-03-06T03:47:26;28.55;;;16.27;;
74791;SDS011;63319;46.046;17.802;2024-03-06T03:50:31;34.90;;;17.73;;
74791;SDS011;63319;46.046;17.802;2024-03-06T03:53:35;32.63;;;17.20;;
74791;SDS011;63319;46.046;17.802;2024-03-06T03:56:39;33.15;;;16.35;;
74791;SDS011;63319;46.046;17.802;2024-03-06T03:59:42;38.15;;;17.95;;
74791;SDS011;63319;46.046;17.802;2024-03-06T04:02:46;35.70;;;18.17;;
74791;SDS011;63319;46.046;17.802;2024-03-06T04:05:49;32.00;;;16.33;;
74791;SDS011;63319;46.046;17.802;2024-03-06T04:08:52;39.45;;;18.05;;
74791;SDS011;63319;46.046;17.802;2024-03-06T04:11:55;37.70;;;18.70;;
74791;SDS011;63319;46.046;17.802;2024-03-06T04:14:58;40.28;;;20.52;;
74791;SDS011;63319;46.046;17.802;2024-03-06T04:18:01;38.78;;;17.35;;
74791;SDS011;63319;46.046;17.802;2024-03-06T04:21:04;35.60;;;19.13;;
74791;SDS011;63319;46.046;17.802;2024-03-06T04:24:08;32.20;;;17.88;;
74791;SDS011;63319;46.046;17.802;2024-03-06T04:27:11;34.80;;;17.55;;
74791;SDS011;63319;46.046;17.802;2024-03-06T04:30:14;44.78;;;18.70;;
74791;SDS011;63319;46.046;17.802;2024-03-06T04:33:17;46.47;;;20.48;;
74791;SDS011;63319;46.046;17.802;2024-03-06T04:36:19;43.25;;;21.00;;
74791;SDS011;63319;46.046;17.802;2024-03-06T04:39:23;46.17;;;20.30;;
74791;SDS011;63319;46.046;17.802;2024-03-06T04:42:25;40.23;;;20.90;;
74791;SDS011;63319;46.046;17.802;2024-03-06T04:45:28;38.95;;;19.70;;
74791;SDS011;63319;46.046;17.802;2024-03-06T04:48:31;38.38;;;18.55;;
74791;SDS011;63319;46.046;17.802;2024-03-06T04:51:34;39.37;;;19.93;;
74791;SDS011;63319;46.046;17.802;2024-03-06T04:54:38;39.70;;;19.58;;
74791;SDS011;63319;46.046;17.802;2024-03-06T04:57:42;42.17;;;21.30;;
74791;SDS011;63319;46.046;17.802;2024-03-06T05:00:46;44.88;;;22.50;;
74791;SDS011;63319;46.046;17.802;2024-03-06T05:03:49;39.50;;;20.55;;
74791;SDS011;63319;46.046;17.802;2024-03-06T05:07:09;43.72;;;22.05;;
74791;SDS011;63319;46.046;17.802;2024-03-06T05:10:29;39.22;;;19.92;;
74791;SDS011;63319;46.046;17.802;2024-03-06T05:13:49;42.40;;;20.70;;
74791;SDS011;63319;46.046;17.802;2024-03-06T05:17:09;45.00;;;21.25;;
74791;SDS011;63319;46.046;17.802;2024-03-06T05:20:30;37.97;;;20.50;;
74791;SDS011;63319;46.046;17.802;2024-03-06T05:23:53;40.57;;;20.97;;
74791;SDS011;63319;46.046;17.802;2024-03-06T05:27:13;40.72;;;20.65;;
74791;SDS011;63319;46.046;17.802;2024-03-06T05:30:36;50.67;;;22.73;;
74791;SDS011;63319;46.046;17.802;2024-03-06T05:33:56;41.75;;;21.20;;
74791;SDS011;63319;46.046;17.802;2024-03-06T05:37:16;37.80;;;19.67;;
74791;SDS011;63319;46.046;17.802;2024-03-06T05:40:37;40.78;;;20.60;;
74791;SDS011;63319;46.046;17.802;2024-03-06T05:43:59;43.03;;;20.92;;
74791;SDS011;63319;46.046;17.802;2024-03-06T05:47:20;48.73;;;22.43;;
74791;SDS011;63319;46.046;17.802;2024-03-06T05:50:40;68.43;;;29.02;;
74791;SDS011;63319;46.046;17.802;2024-03-06T05:54:00;60.10;;;28.33;;
74791;SDS011;63319;46.046;17.802;2024-03-06T05:57:20;56.60;;;25.80;;
74791;SDS011;63319;46.046;17.802;2024-03-06T06:00:40;64.78;;;28.40;;
74791;SDS011;63319;46.046;17.802;2024-03-06T06:03:44;65.68;;;29.35;;
74791;SDS011;63319;46.046;17.802;2024-03-06T06:06:46;61.85;;;27.88;;
74791;SDS011;63319;46.046;17.802;2024-03-06T06:09:49;58.88;;;27.83;;
74791;SDS011;63319;46.046;17.802;2024-03-06T06:12:53;48.38;;;23.77;;
74791;SDS011;63319;46.046;17.802;2024-03-06T06:15:59;49.08;;;22.90;;
74791;SDS011;63319;46.046;17.802;2024-03-06T06:19:05;37.90;;;20.50;;
74791;SDS011;63319;46.046;17.802;2024-03-06T06:22:09;38.97;;;20.33;;
74791;SDS011;63319;46.046;17.802;2024-03-06T06:25:14;45.45;;;22.52;;
74791;SDS011;63319;46.046;17.802;2024-03-06T06:28:18;44.43;;;22.23;;
74791;SDS011;63319;46.046;17.802;2024-03-06T06:31:22;45.58;;;21.58;;
74791;SDS011;63319;46.046;17.802;2024-03-06T06:34:25;44.95;;;21.23;;
74791;SDS011;63319;46.046;17.802;2024-03-06T06:37:30;41.78;;;19.27;;
74791;SDS011;63319;46.046;17.802;2024-03-06T06:40:33;43.83;;;21.08;;
74791;SDS011;63319;46.046;17.802;2024-03-06T06:43:36;43.13;;;21.40;;
74791;SDS011;63319;46.046;17.802;2024-03-06T06:46:39;46.83;;;21.55;;
74791;SDS011;63319;46.046;17.802;2024-03-06T06:49:43;43.13;;;21.17;;
74791;SDS011;63319;46.046;17.802;2024-03-06T06:52:47;43.25;;;20.00;;
74791;SDS011;63319;46.046;17.802;2024-03-06T06:55:50;41.38;;;21.48;;
74791;SDS011;63319;46.046;17.802;2024-03-06T06:58:53;33.27;;;18.13;;
74791;SDS011;63319;46.046;17.802;2024-03-06T07:01:57;32.42;;;17.90;;
74791;SDS011;63319;46.046;17.802;2024-03-06T07:04:59;36.50;;;19.63;;
74791;SDS011;63319;46.046;17.802;2024-03-06T07:08:02;33.70;;;18.30;;
74791;SDS011;63319;46.046;17.802;2024-03-06T07:11:05;33.27;;;17.97;;
74791;SDS011;63319;46.046;17.802;2024-03-06T07:14:09;36.53;;;19.10;;
74791;SDS011;63319;46.046;17.802;2024-03-06T07:17:12;32.60;;;20.63;;
74791;SDS011;63319;46.046;17.802;2024-03-06T07:20:15;33.05;;;18.92;;
74791;SDS011;63319;46.046;17.802;2024-03-06T07:23:18;33.73;;;19.83;;
74791;SDS011;63319;46.046;17.802;2024-03-06T07:26:21;35.70;;;20.70;;
74791;SDS011;63319;46.046;17.802;2024-03-06T07:29:24;39.50;;;20.70;;
74791;SDS011;63319;46.046;17.802;2024-03-06T07:32:27;39.38;;;22.35;;
74791;SDS011;63319;46.046;17.802;2024-03-06T07:35:30;31.17;;;20.48;;
74791;SDS011;63319;46.046;17.802;2024-03-06T07:38:34;36.67;;;20.43;;
74791;SDS011;63319;46.046;17.802;2024-03-06T07:41:37;31.90;;;19.30;;
74791;SDS011;63319;46.046;17.802;2024-03-06T07:44:40;35.88;;;20.80;;
74791;SDS011;63319;46.046;17.802;2024-03-06T07:47:43;31.92;;;19.83;;
74791;SDS011;63319;46.046;17.802;2024-03-06T07:50:48;33.20;;;19.15;;
74791;SDS011;63319;46.046;17.802;2024-03-06T07:53:51;29.43;;;17.93;;
74791;SDS011;63319;46.046;17.802;2024-03-06T07:56:55;31.37;;;19.83;;
74791;SDS011;63319;46.046;17.802;2024-03-06T07:59:58;30.00;;;19.27;;
74791;SDS011;63319;46.046;17.802;2024-03-06T08:03:01;31.67;;;20.65;;
74791;SDS011;63319;46.046;17.802;2024-03-06T08:06:04;32.83;;;21.35;;
74791;SDS011;63319;46.046;17.802;2024-03-06T08:09:08;31.43;;;20.53;;
74791;SDS011;63319;46.046;17.802;2024-03-06T08:12:12;31.67;;;20.53;;
74791;SDS011;63319;46.046;17.802;2024-03-06T08:15:14;30.02;;;19.83;;
74791;SDS011;63319;46.046;17.802;2024-03-06T08:18:17;33.10;;;22.33;;
74791;SDS011;63319;46.046;17.802;2024-03-06T08:21:20;32.83;;;21.02;;
74791;SDS011;63319;46.046;17.802;2024-03-06T08:24:25;34.83;;;19.83;;
74791;SDS011;63319;46.046;17.802;2024-03-06T08:27:28;31.63;;;21.27;;
74791;SDS011;63319;46.046;17.802;2024-03-06T08:30:31;31.70;;;19.48;;
74791;SDS011;63319;46.046;17.802;2024-03-06T08:33:34;28.17;;;19.30;;
74791;SDS011;63319;46.046;17.802;2024-03-06T08:36:37;29.02;;;19.73;;
74791;SDS011;63319;46.046;17.802;2024-03-06T08:39:40;31.00;;;20.37;;
74791;SDS011;63319;46.046;17.802;2024-03-06T08:42:43;30.73;;;18.67;;
74791;SDS011;63319;46.046;17.802;2024-03-06T08:45:47;26.33;;;18.58;;
74791;SDS011;63319;46.046;17.802;2024-03-06T08:48:50;27.95;;;18.00;;
74791;SDS011;63319;46.046;17.802;2024-03-06T08:51:55;30.63;;;18.98;;
74791;SDS011;63319;46.046;17.802;2024-03-06T08:55:00;30.73;;;19.97;;
74791;SDS011;63319;46.046;17.802;2024-03-06T08:58:03;24.83;;;17.40;;
74791;SDS011;63319;46.046;17.802;2024-03-06T09:01:06;29.58;;;18.85;;
74791;SDS011;63319;46.046;17.802;2024-03-06T09:04:09;26.77;;;18.55;;
74791;SDS011;63319;46.046;17.802;2024-03-06T09:07:12;25.00;;;17.25;;
74791;SDS011;63319;46.046;17.802;2024-03-06T09:10:15;25.53;;;16.87;;
74791;SDS011;63319;46.046;17.802;2024-03-06T09:13:19;24.47;;;16.13;;
74791;SDS011;63319;46.046;17.802;2024-03-06T09:16:22;26.10;;;17.15;;
74791;SDS011;63319;46.046;17.802;2024-03-06T09:19:25;27.88;;;17.88;;
74791;SDS011;63319;46.046;17.802;2024-03-06T09:22:28;26.20;;;18.27;;
74791;SDS011;63319;46.046;17.802;2024-03-06T09:25:31;24.87;;;17.87;;
74791;SDS011;63319;46.046;17.802;2024-03-06T09:28:34;28.83;;;18.73;;
74791;SDS011;63319;46.046;17.802;2024-03-06T09:31:37;30.58;;;20.48;;
74791;SDS011;63319;46.046;17.802;2024-03-06T09:34:41;27.17;;;20.23;;
74791;SDS011;63319;46.046;17.802;2024-03-06T09:37:44;28.73;;;18.83;;
74791;SDS011;63319;46.046;17.802;2024-03-06T09:40:48;28.50;;;19.13;;
74791;SDS011;63319;46.046;17.802;2024-03-06T09:43:51;31.00;;;18.83;;
74791;SDS011;63319;46.046;17.802;2024-03-06T09:46:55;30.48;;;19.17;;
74791;SDS011;63319;46.046;17.802;2024-03-06T09:50:02;29.25;;;19.52;;
74791;SDS011;63319;46.046;17.802;2024-03-06T09:53:05;28.95;;;18.48;;
74791;SDS011;63319;46.046;17.802;2024-03-06T09:56:10;27.63;;;18.27;;
74791;SDS011;63319;46.046;17.802;2024-03-06T09:59:13;27.77;;;18.70;;
74791;SDS011;63319;46.046;17.802;2024-03-06T10:05:49;29.77;;;19.40;;
74791;SDS011;63319;46.046;17.802;2024-03-06T10:08:52;27.75;;;18.35;;
74791;SDS011;63319;46.046;17.802;2024-03-06T10:11:55;26.27;;;17.40;;
74791;SDS011;63319;46.046;17.802;2024-03-06T10:15:05;29.73;;;20.77;;
74791;SDS011;63319;46.046;17.802;2024-03-06T10:18:12;29.35;;;18.83;;
74791;SDS011;63319;46.046;17.802;2024-03-06T10:21:17;26.75;;;18.50;;
74791;SDS011;63319;46.046;17.802;2024-03-06T10:24:34;29.27;;;18.63;;
74791;SDS011;63319;46.046;17.802;2024-03-06T10:27:37;27.47;;;18.50;;
74791;SDS011;63319;46.046;17.802;2024-03-06T10:30:41;25.73;;;17.27;;
74791;SDS011;63319;46.046;17.802;2024-03-06T10:33:45;28.08;;;16.70;;
74791;SDS011;63319;46.046;17.802;2024-03-06T10:36:58;25.00;;;17.85;;
74791;SDS011;63319;46.046;17.802;2024-03-06T10:40:03;25.50;;;17.02;;
74791;SDS011;63319;46.046;17.802;2024-03-06T10:43:09;29.40;;;17.10;;
74791;SDS011;63319;46.046;17.802;2024-03-06T10:46:13;24.77;;;16.17;;
74791;SDS011;63319;46.046;17.802;2024-03-06T10:49:17;24.27;;;16.48;;
74791;SDS011;63319;46.046;17.802;2024-03-06T10:52:21;26.45;;;17.25;;
74791;SDS011;63319;46.046;17.802;2024-03-06T10:55:24;27.17;;;17.92;;
74791;SDS011;63319;46.046;17.802;2024-03-06T10:58:30;24.47;;;17.13;;
74791;SDS011;63319;46.046;17.802;2024-03-06T11:01:34;26.37;;;16.77;;
74791;SDS011;63319;46.046;17.802;2024-03-06T11:04:38;26.02;;;17.65;;
74791;SDS011;63319;46.046;17.802;2024-03-06T11:07:43;26.35;;;16.73;;
74791;SDS011;63319;46.046;17.802;2024-03-06T11:10:46;22.58;;;15.80;;
74791;SDS011;63319;46.046;17.802;2024-03-06T11:13:49;22.57;;;16.10;;
74791;SDS011;63319;46.046;17.802;2024-03-06T11:16:56;26.50;;;16.73;;
74791;SDS011;63319;46.046;17.802;2024-03-06T11:23:12;22.17;;;15.60;;
74791;SDS011;63319;46.046;17.802;2024-03-06T11:26:16;24.80;;;16.83;;
74791;SDS011;63319;46.046;17.802;2024-03-06T11:29:19;26.13;;;17.83;;
74791;SDS011;63319;46.046;17.802;2024-03-06T11:32:22;26.87;;;16.63;;
74791;SDS011;63319;46.046;17.802;2024-03-06T11:35:29;24.65;;;16.45;;
74791;SDS011;63319;46.046;17.802;2024-03-06T11:38:32;22.30;;;15.23;;
74791;SDS011;63319;46.046;17.802;2024-03-06T11:44:53;23.87;;;15.67;;
74791;SDS011;63319;46.046;17.802;2024-03-06T11:48:02;23.63;;;15.60;;
74791;SDS011;63319;46.046;17.802;2024-03-06T11:51:06;23.42;;;15.48;;
74791;SDS011;63319;46.046;17.802;2024-03-06T11:54:09;31.23;;;18.58;;
74791;SDS011;63319;46.046;17.802;2024-03-06T11:57:13;27.08;;;17.33;;
74791;SDS011;63319;46.046;17.802;2024-03-06T12:00:20;25.73;;;15.53;;
74791;SDS011;63319;46.046;17.802;2024-03-06T12:03:25;26.67;;;15.13;;
74791;SDS011;63319;46.046;17.802;2024-03-06T12:06:28;21.48;;;13.40;;
74791;SDS011;63319;46.046;17.802;2024-03-06T12:09:35;25.65;;;14.50;;
74791;SDS011;63319;46.046;17.802;2024-03-06T12:12:44;24.98;;;16.80;;
74791;SDS011;63319;46.046;17.802;2024-03-06T12:15:47;23.30;;;13.80;;
74791;SDS011;63319;46.046;17.802;2024-03-06T12:18:57;22.83;;;15.37;;
74791;SDS011;63319;46.046;17.802;2024-03-06T12:22:01;27.10;;;15.85;;
74791;SDS011;63319;46.046;17.802;2024-03-06T12:25:07;44.55;;;24.15;;
74791;SDS011;63319;46.046;17.802;2024-03-06T12:28:10;24.63;;;14.60;;
74791;SDS011;63319;46.046;17.802;2024-03-06T12:31:13;24.70;;;14.00;;
74791;SDS011;63319;46.046;17.802;2024-03-06T12:34:16;25.80;;;15.20;;
74791;SDS011;63319;46.046;17.802;2024-03-06T12:37:20;25.50;;;15.23;;
74791;SDS011;63319;46.046;17.802;2024-03-06T12:40:31;23.88;;;15.57;;
74791;SDS011;63319;46.046;17.802;2024-03-06T12:43:33;23.20;;;13.90;;
74791;SDS011;63319;46.046;17.802;2024-03-06T12:46:37;22.80;;;14.50;;
74791;SDS011;63319;46.046;17.802;2024-03-06T12:49:40;25.77;;;15.13;;
74791;SDS011;63319;46.046;17.802;2024-03-06T12:52:43;22.63;;;15.10;;
74791;SDS011;63319;46.046;17.802;2024-03-06T12:55:48;24.80;;;14.77;;
74791;SDS011;63319;46.046;17.802;2024-03-06T12:58:52;25.38;;;16.65;;
74791;SDS011;63319;46.046;17.802;2024-03-06T13:01:55;23.83;;;13.60;;
74791;SDS011;63319;46.046;17.802;2024-03-06T13:04:58;24.57;;;15.37;;
74791;SDS011;63319;46.046;17.802;2024-03-06T13:08:01;23.13;;;15.27;;
74791;SDS011;63319;46.046;17.802;2024-03-06T13:11:05;20.77;;;13.88;;
74791;SDS011;63319;46.046;17.802;2024-03-06T13:14:07;23.83;;;14.88;;
74791;SDS011;63319;46.046;17.802;2024-03-06T13:17:14;23.50;;;15.27;;
74791;SDS011;63319;46.046;17.802;2024-03-06T13:20:18;22.53;;;13.90;;
74791;SDS011;63319;46.046;17.802;2024-03-06T13:23:21;22.00;;;14.13;;
74791;SDS011;63319;46.046;17.802;2024-03-06T13:26:25;22.20;;;14.07;;
74791;SDS011;63319;46.046;17.802;2024-03-06T13:29:28;21.67;;;14.32;;
74791;SDS011;63319;46.046;17.802;2024-03-06T13:32:32;27.13;;;14.40;;
74791;SDS011;63319;46.046;17.802;2024-03-06T13:35:35;33.67;;;20.70;;
74791;SDS011;63319;46.046;17.802;2024-03-06T13:38:38;26.67;;;16.27;;
74791;SDS011;63319;46.046;17.802;2024-03-06T13:41:42;21.10;;;14.02;;
74791;SDS011;63319;46.046;17.802;2024-03-06T13:44:45;20.45;;;13.80;;
74791;SDS011;63319;46.046;17.802;2024-03-06T13:47:47;20.33;;;12.63;;
74791;SDS011;63319;46.046;17.802;2024-03-06T13:50:51;20.17;;;11.67;;
74791;SDS011;63319;46.046;17.802;2024-03-06T13:53:55;18.63;;;11.98;;
74791;SDS011;63319;46.046;17.802;2024-03-06T13:56:57;22.30;;;14.65;;
74791;SDS011;63319;46.046;17.802;2024-03-06T14:00:04;20.95;;;13.32;;
74791;SDS011;63319;46.046;17.802;2024-03-06T14:03:15;22.13;;;14.03;;
74791;SDS011;63319;46.046;17.802;2024-03-06T14:06:18;20.53;;;12.17;;
74791;SDS011;63319;46.046;17.802;2024-03-06T14:09:21;18.08;;;11.95;;
74791;SDS011;63319;46.046;17.802;2024-03-06T14:12:26;20.88;;;12.15;;
74791;SDS011;63319;46.046;17.802;2024-03-06T14:15:29;19.80;;;12.75;;
74791;SDS011;63319;46.046;17.802;2024-03-06T14:18:32;17.87;;;10.83;;
74791;SDS011;63319;46.046;17.802;2024-03-06T14:21:36;20.37;;;12.13;;
74791;SDS011;63319;46.046;17.802;2024-03-06T14:24:40;19.50;;;12.13;;
74791;SDS011;63319;46.046;17.802;2024-03-06T14:27:44;21.58;;;11.30;;
74791;SDS011;63319;46.046;17.802;2024-03-06T14:30:47;18.10;;;10.50;;
74791;SDS011;63319;46.046;17.802;2024-03-06T14:33:50;18.60;;;11.33;;
74791;SDS011;63319;46.046;17.802;2024-03-06T14:36:54;19.27;;;11.77;;
74791;SDS011;63319;46.046;17.802;2024-03-06T14:39:57;21.13;;;11.82;;
74791;SDS011;63319;46.046;17.802;2024-03-06T14:43:03;18.80;;;10.77;;
74791;SDS011;63319;46.046;17.802;2024-03-06T14:46:11;21.80;;;10.68;;
74791;SDS011;63319;46.046;17.802;2024-03-06T14:49:15;19.57;;;10.60;;
74791;SDS011;63319;46.046;17.802;2024-03-06T14:52:18;18.17;;;10.87;;
74791;SDS011;63319;46.046;17.802;2024-03-06T14:55:21;20.40;;;12.05;;
74791;SDS011;63319;46.046;17.802;2024-03-06T14:58:24;17.60;;;10.85;;
74791;SDS011;63319;46.046;17.802;2024-03-06T15:01:27;21.88;;;12.13;;
74791;SDS011;63319;46.046;17.802;2024-03-06T15:04:31;18.83;;;11.30;;
74791;SDS011;63319;46.046;17.802;2024-03-06T15:07:34;22.30;;;12.50;;
74791;SDS011;63319;46.046;17.802;2024-03-06T15:10:36;28.52;;;15.90;;
74791;SDS011;63319;46.046;17.802;2024-03-06T15:13:40;24.65;;;13.45;;
74791;SDS011;63319;46.046;17.802;2024-03-06T15:16:43;24.02;;;14.13;;
74791;SDS011;63319;46.046;17.802;2024-03-06T15:19:47;27.10;;;13.90;;
74791;SDS011;63319;46.046;17.802;2024-03-06T15:22:51;22.73;;;12.40;;
74791;SDS011;63319;46.046;17.802;2024-03-06T15:25:55;24.50;;;13.65;;
74791;SDS011;63319;46.046;17.802;2024-03-06T15:28:58;23.88;;;13.82;;
74791;SDS011;63319;46.046;17.802;2024-03-06T15:32:02;25.57;;;14.20;;
74791;SDS011;63319;46.046;17.802;2024-03-06T15:35:06;25.42;;;13.00;;
74791;SDS011;63319;46.046;17.802;2024-03-06T15:38:11;23.00;;;12.65;;
74791;SDS011;63319;46.046;17.802;2024-03-06T15:41:14;26.93;;;13.73;;
74791;SDS011;63319;46.046;17.802;2024-03-06T15:44:17;27.55;;;14.48;;
74791;SDS011;63319;46.046;17.802;2024-03-06T15:47:20;30.88;;;15.50;;
74791;SDS011;63319;46.046;17.802;2024-03-06T15:50:24;29.90;;;16.15;;
74791;SDS011;63319;46.046;17.802;2024-03-06T15:53:26;25.00;;;13.87;;
74791;SDS011;63319;46.046;17.802;2024-03-06T15:56:34;24.90;;;13.27;;
74791;SDS011;63319;46.046;17.802;2024-03-06T15:59:37;31.58;;;16.67;;
74791;SDS011;63319;46.046;17.802;2024-03-06T16:02:40;33.72;;;17.33;;
74791;SDS011;63319;46.046;17.802;2024-03-06T16:05:44;31.88;;;16.67;;
74791;SDS011;63319;46.046;17.802;2024-03-06T16:08:50;32.15;;;16.27;;
74791;SDS011;63319;46.046;17.802;2024-03-06T16:11:52;29.63;;;15.70;;
74791;SDS011;63319;46.046;17.802;2024-03-06T16:14:56;34.40;;;17.37;;
74791;SDS011;63319;46.046;17.802;2024-03-06T16:17:59;31.20;;;16.65;;
74791;SDS011;63319;46.046;17.802;2024-03-06T16:21:02;33.45;;;16.45;;
74791;SDS011;63319;46.046;17.802;2024-03-06T16:24:05;30.73;;;16.70;;
74791;SDS011;63319;46.046;17.802;2024-03-06T16:27:12;30.90;;;16.58;;
74791;SDS011;63319;46.046;17.802;2024-03-06T16:30:15;33.58;;;17.20;;
74791;SDS011;63319;46.046;17.802;2024-03-06T16:33:18;32.95;;;17.25;;
74791;SDS011;63319;46.046;17.802;2024-03-06T16:36:21;32.03;;;17.37;;
74791;SDS011;63319;46.046;17.802;2024-03-06T16:39:24;33.80;;;18.60;;
74791;SDS011;63319;46.046;17.802;2024-03-06T16:42:27;35.80;;;18.63;;
74791;SDS011;63319;46.046;17.802;2024-03-06T16:45:30;39.80;;;20.65;;
74791;SDS011;63319;46.046;17.802;2024-03-06T16:48:33;38.22;;;19.90;;
74791;SDS011;63319;46.046;17.802;2024-03-06T16:51:37;31.70;;;17.00;;
74791;SDS011;63319;46.046;17.802;2024-03-06T16:54:39;32.65;;;16.25;;
74791;SDS011;63319;46.046;17.802;2024-03-06T16:57:43;30.90;;;16.70;;
74791;SDS011;63319;46.046;17.802;2024-03-06T17:00:46;38.45;;;18.85;;
74791;SDS011;63319;46.046;17.802;2024-03-06T17:03:50;30.33;;;16.08;;
74791;SDS011;63319;46.046;17.802;2024-03-06T17:06:53;34.37;;;17.30;;
74791;SDS011;63319;46.046;17.802;2024-03-06T17:09:55;34.10;;;17.50;;
74791;SDS011;63319;46.046;17.802;2024-03-06T17:12:59;41.80;;;20.67;;
74791;SDS011;63319;46.046;17.802;2024-03-06T17:16:07;35.97;;;18.42;;
74791;SDS011;63319;46.046;17.802;2024-03-06T17:19:11;37.55;;;19.23;;
74791;SDS011;63319;46.046;17.802;2024-03-06T17:22:13;32.22;;;16.88;;
74791;SDS011;63319;46.046;17.802;2024-03-06T17:25:16;31.45;;;16.10;;
74791;SDS011;63319;46.046;17.802;2024-03-06T17:28:21;30.47;;;15.83;;
74791;SDS011;63319;46.046;17.802;2024-03-06T17:31:26;31.75;;;16.33;;
74791;SDS011;63319;46.046;17.802;2024-03-06T17:34:30;33.00;;;17.27;;
74791;SDS011;63319;46.046;17.802;2024-03-06T17:37:34;34.63;;;18.50;;
74791;SDS011;63319;46.046;17.802;2024-03-06T17:40:37;32.17;;;18.38;;
74791;SDS011;63319;46.046;17.802;2024-03-06T17:43:41;35.10;;;18.45;;
74791;SDS011;63319;46.046;17.802;2024-03-06T17:46:44;35.90;;;18.85;;
74791;SDS011;63319;46.046;17.802;2024-03-06T17:49:46;33.63;;;17.85;;
74791;SDS011;63319;46.046;17.802;2024-03-06T17:52:50;36.10;;;17.13;;